Holbaek, Denmark
Current Conditions -  °F | °C
As of 9:20 AM on Friday 28 Nov 2014 (Local Time) from EKRK Reporting Station
Drizzle Drizzle  
Wind Chill: 30°   Ceiling: 3700
Heat Index: 39°   Visibility: 6mi
Dew Point: 36°   Wind: 16mph
Humidity: 87%   Direction: 80°E
Pressure: 30.21"   Gusts: NA
Location:  55.72°N, 11.72°E
Report Text: EKRK 280820Z AUTO 08014KT 9999NDV DZ FEW020/// SCT031///BKN037/// OVC043/// 04/02 Q1023
Loading
Personal Weather Stations






























Interactive Weather Map New forecast layout! Learn more

10-Day Weather Forecast

Advertisements
Track Severe Weather on mobile